Time;durP1;ratioP1;P1;durP2;ratioP2;P2;SDS_P1;SDS_P2;PMS_P1;PMS_P2;Temp;Humidity;BMP_temperature;BMP_pressure;BME280_temperature;BME280_humidity;BME280_pressure;Samples;Min_cycle;Max_cycle;Signal;HPM_P1;HPM_P2
2023/04/09 14:03:23;;;;;;;5.28;1.95;;;;;;;21.12;41.78;101620.03;5111991;27;20453;-44
2023/04/09 14:05:51;;;;;;;5.85;1.70;;;;;;;21.92;39.98;101621.03;5108588;28;20040;-55
2023/04/09 14:08:19;;;;;;;4.70;1.42;;;;;;;22.50;38.49;101619.34;5108563;28;20032;-49
2023/04/09 14:10:46;;;;;;;6.90;1.80;;;;;;;22.94;37.91;101615.34;5109823;28;20081;-43
2023/04/09 14:13:13;;;;;;;7.72;1.60;;;;;;;23.35;36.72;101621.72;5109667;28;20465;-53
2023/04/09 14:15:40;;;;;;;2.35;1.30;;;;;;;23.50;36.63;101625.56;5109448;28;20453;-43
2023/04/09 14:18:08;;;;;;;2.95;1.08;;;;;;;23.63;36.33;101627.66;5105673;28;20085;-45
2023/04/09 14:20:35;;;;;;;6.82;1.48;;;;;;;23.81;35.96;101628.94;5109446;28;20031;-53
2023/04/09 14:23:04;;;;;;;6.85;1.75;;;;;;;23.94;35.84;101630.13;5109048;28;20477;-51
2023/04/09 14:25:31;;;;;;;3.83;1.38;;;;;;;23.87;35.83;101628.19;5109509;28;20035;-43
2023/04/09 14:27:58;;;;;;;7.00;2.05;;;;;;;23.83;36.05;101635.97;5109437;28;20035;-43
2023/04/09 14:30:25;;;;;;;4.55;1.63;;;;;;;23.73;35.97;101631.38;5109700;28;20035;-48
2023/04/09 14:32:53;;;;;;;5.60;1.42;;;;;;;23.69;36.51;101640.00;5108676;28;20110;-53
2023/04/09 14:35:20;;;;;;;3.95;1.60;;;;;;;23.69;36.11;101637.38;5107851;28;20058;-54
2023/04/09 14:37:48;;;;;;;4.75;1.70;;;;;;;23.73;36.13;101639.25;5109217;28;20020;-55
2023/04/09 14:40:19;;;;;;;7.03;1.95;;;;;;;23.70;36.44;101635.66;5109227;28;20533;-53
2023/04/09 14:42:49;;;;;;;3.20;1.73;;;;;;;23.78;36.47;101648.09;5108251;28;20039;-43
2023/04/09 14:45:16;;;;;;;7.15;2.15;;;;;;;23.91;36.19;101637.91;5109025;28;20113;-44
2023/04/09 14:47:44;;;;;;;4.55;1.55;;;;;;;23.82;36.21;101636.84;5107645;28;20475;-52
2023/04/09 14:50:11;;;;;;;3.83;1.42;;;;;;;23.81;36.42;101642.94;5109564;28;20038;-43
2023/04/09 14:52:38;;;;;;;6.10;1.83;;;;;;;23.86;36.17;101642.16;5108667;28;20488;-55
2023/04/09 14:55:10;;;;;;;5.70;1.90;;;;;;;23.86;35.88;101642.16;5108930;28;20066;-54
2023/04/09 14:57:40;;;;;;;2.90;1.42;;;;;;;23.81;36.12;101644.66;5108846;28;20039;-47
2023/04/09 15:00:10;;;;;;;4.90;1.88;;;;;;;23.84;36.26;101642.13;5108895;28;20400;-50
2023/04/09 15:02:38;;;;;;;6.75;1.80;;;;;;;23.92;36.19;101647.56;5108164;28;20048;-44
2023/04/09 15:05:07;;;;;;;8.73;1.95;;;;;;;23.82;36.24;101644.72;5108867;28;20081;-54
2023/04/09 15:07:35;;;;;;;5.20;1.58;;;;;;;23.77;36.11;101642.81;5108994;28;20027;-49
2023/04/09 15:10:04;;;;;;;3.53;1.48;;;;;;;23.72;36.23;101644.44;5108568;28;20084;-51
2023/04/09 15:12:33;;;;;;;4.53;1.45;;;;;;;23.74;36.59;101645.38;5106658;28;20051;-53
2023/04/09 15:15:01;;;;;;;9.80;2.10;;;;;;;23.61;36.53;101639.81;5094988;28;20032;-54
2023/04/09 15:17:29;;;;;;;8.85;2.28;;;;;;;23.60;36.96;101648.50;5094850;28;20024;-54
2023/04/09 15:19:58;;;;;;;6.40;1.50;;;;;;;23.56;36.74;101646.69;5094647;28;20081;-53
2023/04/09 15:22:25;;;;;;;4.13;1.55;;;;;;;23.62;36.98;101652.06;5094264;28;20105;-43
2023/04/09 15:24:54;;;;;;;6.28;1.73;;;;;;;23.60;36.77;101638.03;5094865;28;20028;-46
2023/04/09 15:27:22;;;;;;;4.18;1.55;;;;;;;23.67;36.63;101644.31;5090573;28;20032;-55
2023/04/09 15:29:51;;;;;;;6.22;1.55;;;;;;;23.62;36.88;101643.34;5090693;28;20016;-54
2023/04/09 15:32:19;;;;;;;6.50;2.10;;;;;;;23.67;37.01;101639.97;5094340;28;20024;-48
2023/04/09 15:34:48;;;;;;;5.65;1.98;;;;;;;23.67;36.90;101644.31;5094868;28;20426;-53
2023/04/09 15:37:15;;;;;;;6.00;1.70;;;;;;;23.67;36.83;101639.06;5094485;28;20119;-54
2023/04/09 15:39:43;;;;;;;7.63;1.85;;;;;;;23.76;36.40;101630.56;5094326;28;20020;-54
2023/04/09 15:42:10;;;;;;;4.65;1.92;;;;;;;23.71;36.74;101624.34;5092937;28;20060;-42
2023/04/09 15:44:38;;;;;;;5.82;1.60;;;;;;;23.69;36.66;101629.53;5094439;28;20092;-55
2023/04/09 15:47:05;;;;;;;2.88;1.40;;;;;;;23.65;37.07;101625.06;5094137;28;20020;-49
2023/04/09 15:49:35;;;;;;;7.28;1.85;;;;;;;23.64;36.70;101624.19;5094135;28;20058;-54
2023/04/09 15:52:03;;;;;;;3.83;1.30;;;;;;;23.64;36.71;101623.31;5094167;28;20111;-44
2023/04/09 15:54:31;;;;;;;6.47;1.77;;;;;;;23.73;36.38;101620.91;5094298;28;20036;-42
2023/04/09 15:56:59;;;;;;;5.20;1.77;;;;;;;23.80;36.35;101617.59;5094360;28;20465;-51
2023/04/09 15:59:28;;;;;;;2.78;1.15;;;;;;;23.77;36.43;101614.91;5094312;28;20488;-54
2023/04/09 16:01:55;;;;;;;7.47;1.35;;;;;;;23.80;36.67;101614.97;5093043;28;20047;-52
2023/04/09 16:04:23;;;;;;;2.60;1.20;;;;;;;23.85;36.52;101617.69;5094325;28;20098;-43
2023/04/09 16:06:52;;;;;;;4.90;2.10;;;;;;;23.86;36.76;101611.59;5093901;28;20024;-43
2023/04/09 16:09:21;;;;;;;8.13;2.67;;;;;;;23.89;36.77;101603.81;5093933;28;20032;-52
2023/04/09 16:11:49;;;;;;;5.97;2.50;;;;;;;23.88;36.62;101604.69;5092949;28;20119;-54
2023/04/09 16:14:18;;;;;;;4.82;2.00;;;;;;;23.94;36.59;101603.94;5093930;28;20020;-54
2023/04/09 16:16:48;;;;;;;8.95;2.40;;;;;;;23.96;36.56;101600.50;5094029;28;20024;-54
2023/04/09 16:19:18;;;;;;;10.85;2.08;;;;;;;23.91;36.70;101603.84;5094227;28;20045;-43
2023/04/09 16:21:46;;;;;;;6.47;2.20;;;;;;;23.99;36.48;101597.09;5093026;28;20024;-55
2023/04/09 16:24:14;;;;;;;8.10;2.00;;;;;;;24.00;36.34;101600.59;5093408;28;20028;-54
2023/04/09 16:26:45;;;;;;;4.22;1.98;;;;;;;23.95;36.47;101603.06;5092999;28;20420;-51
2023/04/09 16:29:15;;;;;;;6.50;1.90;;;;;;;23.77;36.76;101603.50;5092126;28;20381;-55
2023/04/09 16:31:42;;;;;;;7.88;1.83;;;;;;;23.81;36.63;101608.88;5092552;28;20031;-43
2023/04/09 16:34:11;;;;;;;4.30;1.77;;;;;;;23.68;37.33;101606.78;5092151;28;20431;-54
2023/04/09 16:36:40;;;;;;;6.45;2.17;;;;;;;23.78;36.84;101613.16;5093205;28;20036;-43
2023/04/09 16:39:07;;;;;;;2.97;1.55;;;;;;;23.68;37.27;101614.66;5093662;28;20488;-55
2023/04/09 16:41:35;;;;;;;3.58;1.73;;;;;;;23.72;37.11;101607.78;5091335;28;20039;-45
2023/04/09 16:44:03;;;;;;;6.53;2.60;;;;;;;23.77;36.85;101611.38;5093514;28;20023;-56
2023/04/09 16:46:31;;;;;;;5.70;1.80;;;;;;;23.78;37.03;101606.19;5093117;28;20394;-56
2023/04/09 16:48:58;;;;;;;5.93;2.10;;;;;;;23.86;36.97;101605.47;5092747;28;20031;-52
2023/04/09 16:51:26;;;;;;;4.97;1.70;;;;;;;23.91;36.51;101603.84;5092395;28;20032;-45
2023/04/09 16:53:54;;;;;;;7.53;1.90;;;;;;;23.92;36.71;101605.63;5093374;28;20339;-56
2023/04/09 16:56:22;;;;;;;5.15;1.88;;;;;;;23.96;36.22;101607.47;5087823;28;20122;-56
2023/04/09 16:58:50;;;;;;;5.22;2.10;;;;;;;23.99;36.29;101599.72;5093259;28;20046;-55
2023/04/09 17:01:17;;;;;;;4.20;1.77;;;;;;;23.99;36.41;101609.31;5090978;28;20134;-56
2023/04/09 17:03:48;;;;;;;4.38;1.77;;;;;;;23.99;36.30;101604.06;5093793;28;20055;-54
2023/04/09 17:06:15;;;;;;;4.68;1.88;;;;;;;23.98;36.32;101608.44;5093406;28;20020;-56
2023/04/09 17:08:44;;;;;;;6.60;2.28;;;;;;;24.03;36.38;101606.78;5093489;28;20035;-55
2023/04/09 17:11:16;;;;;;;4.53;1.60;;;;;;;24.00;36.56;101608.44;5071913;28;20074;-56
2023/04/09 17:13:45;;;;;;;3.92;1.30;;;;;;;24.01;36.84;101608.47;5073113;28;20036;-56
2023/04/09 17:16:13;;;;;;;7.03;2.05;;;;;;;24.00;36.82;101605.84;5073337;28;20031;-56
2023/04/09 17:18:40;;;;;;;3.08;1.50;;;;;;;24.02;36.70;101612.88;5073678;28;20024;-51
2023/04/09 17:21:09;;;;;;;4.60;1.50;;;;;;;24.04;36.61;101613.78;5092973;28;20028;-55
2023/04/09 17:23:37;;;;;;;4.13;1.50;;;;;;;24.03;36.83;101614.63;5093389;28;20027;-55
2023/04/09 17:26:06;;;;;;;5.97;1.83;;;;;;;24.06;36.56;101608.59;5093347;28;20035;-55
2023/04/09 17:28:34;;;;;;;11.00;2.10;;;;;;;24.04;36.80;101619.03;5093294;28;20027;-56
2023/04/09 17:31:02;;;;;;;4.90;1.65;;;;;;;24.01;37.19;101611.09;5092879;28;20039;-55
2023/04/09 17:33:29;;;;;;;7.32;1.95;;;;;;;24.06;36.90;101614.72;5093230;28;20365;-52
2023/04/09 17:35:59;;;;;;;6.93;1.88;;;;;;;24.02;37.04;101612.88;5092961;28;20111;-56
2023/04/09 17:38:27;;;;;;;5.72;2.00;;;;;;;24.04;37.58;101611.19;5092036;28;20435;-56
2023/04/09 17:40:57;;;;;;;6.13;2.60;;;;;;;24.02;37.31;101612.88;5093265;28;20024;-55
2023/04/09 17:43:25;;;;;;;6.70;1.90;;;;;;;24.01;37.68;101612.84;5092292;28;20032;-55
2023/04/09 17:45:53;;;;;;;6.47;1.55;;;;;;;24.07;37.44;101608.63;5092716;28;20024;-56
2023/04/09 17:48:21;;;;;;;9.13;2.55;;;;;;;24.11;37.47;101607.84;5092820;28;20055;-55
2023/04/09 17:50:49;;;;;;;9.38;2.20;;;;;;;24.19;37.70;101601.88;5092933;28;20028;-56
2023/04/09 17:53:16;;;;;;;9.30;2.67;;;;;;;24.21;37.70;101603.72;5092787;28;20097;-56
2023/04/09 17:55:47;;;;;;;36.17;6.78;;;;;;;24.25;38.27;101599.41;5093064;28;20027;-55
2023/04/09 17:58:15;;;;;;;38.78;9.55;;;;;;;24.26;38.39;101601.19;5093078;28;20028;-56
2023/04/09 18:00:43;;;;;;;45.65;12.65;;;;;;;24.27;38.60;101606.44;5092828;28;20035;-56
2023/04/09 18:03:12;;;;;;;42.00;11.52;;;;;;;24.23;38.54;101593.25;5092411;28;20485;-55
2023/04/09 18:05:40;;;;;;;33.22;10.32;;;;;;;24.27;38.86;101600.34;5092770;28;20473;-54
2023/04/09 18:08:09;;;;;;;29.02;8.95;;;;;;;24.30;38.90;101595.16;5091862;28;20024;-53
2023/04/09 18:10:36;;;;;;;35.83;9.70;;;;;;;24.33;38.63;101589.09;5091898;28;20057;-53
2023/04/09 18:13:04;;;;;;;30.40;8.88;;;;;;;24.33;38.41;101592.56;5092463;28;20118;-51
2023/04/09 18:15:31;;;;;;;30.63;7.88;;;;;;;24.31;38.48;101582.91;5092974;28;20028;-51
2023/04/09 18:17:59;;;;;;;31.75;9.05;;;;;;;24.34;38.46;101583.84;5092747;28;20024;-45
2023/04/09 18:20:27;;;;;;;27.10;8.10;;;;;;;24.35;38.15;101579.50;5092514;28;20028;-52
2023/04/09 18:22:54;;;;;;;27.10;7.93;;;;;;;24.37;38.09;101577.81;5091258;28;20034;-54
2023/04/09 18:25:22;;;;;;;29.48;7.50;;;;;;;24.34;38.21;101583.84;5092824;28;20057;-50
2023/04/09 18:27:50;;;;;;;25.88;8.10;;;;;;;24.36;38.28;101571.66;5091544;28;20108;-51
2023/04/09 18:30:17;;;;;;;26.67;8.10;;;;;;;24.36;38.25;101581.28;5092447;28;20031;-51
2023/04/09 18:32:46;;;;;;;25.10;6.57;;;;;;;24.35;38.13;101577.75;5091599;28;20107;-54
2023/04/09 18:35:16;;;;;;;17.10;5.95;;;;;;;24.38;38.00;101582.22;5092063;28;20483;-55
2023/04/09 18:37:43;;;;;;;20.13;6.68;;;;;;;24.39;37.95;101576.97;5092651;28;20024;-48
2023/04/09 18:40:11;;;;;;;18.83;6.15;;;;;;;24.37;37.93;101576.06;5092155;28;20044;-53
2023/04/09 18:42:38;;;;;;;21.80;6.30;;;;;;;24.40;37.91;101575.25;5092297;28;20074;-51
2023/04/09 18:45:06;;;;;;;16.60;5.63;;;;;;;24.37;37.76;101578.69;5092551;28;20040;-54
2023/04/09 18:47:34;;;;;;;14.57;5.30;;;;;;;24.37;37.66;101585.69;5092487;28;20016;-55
2023/04/09 18:50:01;;;;;;;18.90;4.97;;;;;;;24.40;37.58;101576.13;5095086;28;20031;-47
2023/04/09 18:52:29;;;;;;;12.88;4.60;;;;;;;24.40;37.37;101573.50;5096277;28;20087;-50
2023/04/09 18:54:56;;;;;;;19.33;5.30;;;;;;;24.40;37.69;101570.88;5096221;28;20027;-51
2023/04/09 18:57:23;;;;;;;13.18;4.63;;;;;;;24.41;37.55;101563.88;5096047;28;20469;-53
2023/04/09 18:59:51;;;;;;;17.55;5.20;;;;;;;24.42;37.16;101566.56;5096325;28;20045;-48
2023/04/09 19:02:19;;;;;;;15.25;4.95;;;;;;;24.38;37.17;101572.59;5095669;28;20044;-55
2023/04/09 19:04:47;;;;;;;14.82;4.32;;;;;;;24.38;37.29;101579.59;5096036;28;20470;-54
2023/04/09 19:07:15;;;;;;;15.07;4.60;;;;;;;24.31;37.53;101575.94;5095906;28;20020;-54
2023/04/09 19:09:43;;;;;;;12.32;4.45;;;;;;;24.28;37.77;101574.13;5096156;28;20024;-56
2023/04/09 19:12:11;;;;;;;12.93;3.92;;;;;;;24.20;37.59;101574.81;5094441;28;20028;-55
2023/04/09 19:14:39;;;;;;;12.35;4.05;;;;;;;24.21;37.43;101580.13;5128480;22;20104;-56
2023/04/09 19:17:07;;;;;;;14.30;3.85;;;;;;;24.20;37.66;101583.59;5035606;28;20108;-54
2023/04/09 19:19:36;;;;;;;18.52;4.43;;;;;;;24.17;37.89;101580.00;5035747;28;20193;-57
2023/04/09 19:22:04;;;;;;;10.40;3.67;;;;;;;24.23;37.81;101585.38;5035438;28;20120;-53
2023/04/09 19:24:33;;;;;;;9.82;3.55;;;;;;;24.23;37.59;101588.00;5035649;28;20025;-47
